Time;durP1;ratioP1;P1;durP2;ratioP2;P2;SDS_P1;SDS_P2;PMS_P1;PMS_P2;Temp;Humidity;BMP_temperature;BMP_pressure;BME280_temperature;BME280_humidity;BME280_pressure;Samples;Min_cycle;Max_cycle;Signal;HPM_P1;HPM_P2
2022/03/18 00:00:33;;;;;;;31.48;26.02;;;;;;;4.42;100.00;94361.47;2106081;28;20727;-81
2022/03/18 00:01:34;;;;;;;30.33;25.35;;;;;;;4.33;100.00;94358.25;2098367;28;20024;-81
2022/03/18 00:02:35;;;;;;;31.58;26.27;;;;;;;4.27;100.00;94357.75;2120762;27;20110;-81
2022/03/18 00:03:39;;;;;;;32.38;27.05;;;;;;;4.20;100.00;94354.94;2123572;27;20027;-82
2022/03/18 00:04:41;;;;;;;32.97;25.65;;;;;;;4.46;100.00;94358.91;2123982;27;20475;-81
2022/03/18 00:05:42;;;;;;;31.20;26.08;;;;;;;4.36;100.00;94359.44;2118005;27;20043;-81
2022/03/18 00:06:43;;;;;;;31.33;25.25;;;;;;;4.25;100.00;94361.84;2098113;28;20066;-82
2022/03/18 00:07:45;;;;;;;30.50;25.23;;;;;;;4.22;100.00;94358.00;2106490;28;20027;-82
2022/03/18 00:08:46;;;;;;;30.73;26.13;;;;;;;4.18;100.00;94362.47;2115231;27;20427;-80
2022/03/18 00:09:48;;;;;;;30.45;24.17;;;;;;;4.36;100.00;94356.78;2114932;27;20038;-81
2022/03/18 00:10:49;;;;;;;30.35;25.42;;;;;;;4.31;100.00;94365.78;2106831;28;20089;-81
2022/03/18 00:11:50;;;;;;;31.45;25.55;;;;;;;4.28;100.00;94361.91;2106011;28;20024;-81
2022/03/18 00:12:52;;;;;;;29.80;24.95;;;;;;;4.42;100.00;94361.47;2114911;28;20027;-81
2022/03/18 00:13:53;;;;;;;31.02;25.23;;;;;;;4.43;100.00;94359.56;2106617;28;20020;-81
2022/03/18 00:14:54;;;;;;;29.67;25.23;;;;;;;4.33;100.00;94357.47;2106516;28;20531;-81
2022/03/18 00:15:56;;;;;;;28.02;24.15;;;;;;;4.35;100.00;94361.31;2114939;28;20027;-82
2022/03/18 00:16:58;;;;;;;29.52;24.73;;;;;;;4.36;100.00;94365.50;2106568;28;20072;-81
2022/03/18 00:18:00;;;;;;;30.30;24.85;;;;;;;4.38;100.00;94362.50;2106821;28;20058;-81
2022/03/18 00:19:01;;;;;;;27.17;24.05;;;;;;;4.29;100.00;94367.97;2098301;28;20082;-81
2022/03/18 00:20:06;;;;;;;28.48;23.38;;;;;;;4.29;100.00;94363.44;2106511;28;20040;-82
2022/03/18 00:21:08;;;;;;;27.95;23.65;;;;;;;4.43;100.00;94363.00;2091235;28;20374;-81
2022/03/18 00:22:11;;;;;;;27.98;23.05;;;;;;;4.48;100.00;94364.63;2090429;28;20029;-81
2022/03/18 00:23:13;;;;;;;27.27;23.20;;;;;;;4.58;100.00;94366.72;2097681;28;20025;-81
2022/03/18 00:24:14;;;;;;;27.77;23.13;;;;;;;4.51;100.00;94364.69;2104978;28;20074;-81
2022/03/18 00:25:17;;;;;;;25.65;22.67;;;;;;;4.65;100.00;94364.22;2105316;28;20451;-81
2022/03/18 00:26:18;;;;;;;27.67;22.88;;;;;;;4.57;100.00;94364.44;2097403;28;20115;-82
2022/03/18 00:27:19;;;;;;;25.85;21.90;;;;;;;4.34;100.00;94366.94;2105562;28;20031;-82
2022/03/18 00:28:20;;;;;;;26.92;22.13;;;;;;;4.54;100.00;94374.59;2114651;28;20024;-81
2022/03/18 00:29:21;;;;;;;25.00;21.02;;;;;;;4.46;100.00;94372.91;2106045;28;20046;-81
2022/03/18 00:30:22;;;;;;;26.38;22.10;;;;;;;4.45;100.00;94378.53;2103722;28;20035;-82
2022/03/18 00:31:23;;;;;;;27.38;21.88;;;;;;;4.39;100.00;94370.13;2104205;28;20024;-82
2022/03/18 00:32:25;;;;;;;26.67;21.63;;;;;;;4.39;100.00;94374.63;2096135;28;20029;-82
2022/03/18 00:33:27;;;;;;;28.00;23.33;;;;;;;4.17;100.00;94362.78;2105912;27;20028;-82
2022/03/18 00:34:28;;;;;;;24.55;21.48;;;;;;;4.32;100.00;94372.59;2105541;28;20123;-82
2022/03/18 00:35:29;;;;;;;26.23;22.25;;;;;;;4.35;100.00;94371.16;2104260;28;20024;-81
2022/03/18 00:36:30;;;;;;;28.23;22.73;;;;;;;4.20;100.00;94367.41;2113818;28;20053;-81
2022/03/18 00:37:31;;;;;;;25.85;22.02;;;;;;;4.27;100.00;94378.16;2106209;28;20051;-82
2022/03/18 00:38:33;;;;;;;27.88;22.05;;;;;;;4.26;100.00;94372.09;2097926;28;20024;-81
2022/03/18 00:39:35;;;;;;;25.88;20.80;;;;;;;4.38;100.00;94368.56;2098067;28;20488;-81
2022/03/18 00:40:36;;;;;;;25.90;22.15;;;;;;;4.40;100.00;94371.63;2089792;28;20082;-81
2022/03/18 00:41:37;;;;;;;25.45;21.00;;;;;;;4.52;100.00;94371.53;2106473;27;20024;-81
2022/03/18 00:42:38;;;;;;;25.70;21.77;;;;;;;4.54;100.00;94371.94;2106234;28;20031;-82
2022/03/18 00:43:39;;;;;;;26.95;21.33;;;;;;;4.54;100.00;94369.28;2089683;28;20039;-81
2022/03/18 00:44:42;;;;;;;27.67;22.48;;;;;;;4.40;100.00;94371.63;2098357;28;20066;-81
2022/03/18 00:45:43;;;;;;;24.95;20.92;;;;;;;4.46;100.00;94364.19;2111736;28;20023;-81
2022/03/18 00:46:44;;;;;;;26.75;21.08;;;;;;;4.31;100.00;94370.28;2106064;28;20020;-82
2022/03/18 00:52:06;;;;;;;24.90;20.83;;;;;;;4.32;100.00;94369.94;2114892;28;20059;-82
2022/03/18 00:53:08;;;;;;;25.17;20.50;;;;;;;4.32;100.00;94377.88;2114710;28;20113;-82
2022/03/18 00:54:09;;;;;;;25.60;20.42;;;;;;;4.38;100.00;94367.78;2097953;28;20473;-82
2022/03/18 00:55:10;;;;;;;25.23;21.17;;;;;;;4.44;100.00;94371.72;2106256;28;20501;-82
2022/03/18 00:56:12;;;;;;;27.05;21.20;;;;;;;4.39;100.00;94374.63;2113929;28;20031;-81
2022/03/18 00:57:13;;;;;;;27.00;21.77;;;;;;;4.44;100.00;94375.13;2097888;28;20027;-82
2022/03/18 00:58:14;;;;;;;28.50;21.83;;;;;;;4.58;100.00;94371.25;2114599;28;20055;-82
2022/03/18 00:59:15;;;;;;;26.15;21.40;;;;;;;4.56;100.00;94374.22;2122799;27;20468;-82
2022/03/18 01:00:16;;;;;;;26.77;22.08;;;;;;;4.55;100.00;94370.06;2089398;28;20068;-82
2022/03/18 01:01:17;;;;;;;25.65;21.70;;;;;;;4.70;100.00;94371.91;2099755;28;20032;-82
2022/03/18 01:02:18;;;;;;;26.80;23.00;;;;;;;4.61;100.00;94375.84;2097546;28;20020;-82
2022/03/18 01:03:19;;;;;;;28.70;22.42;;;;;;;4.77;100.00;94372.03;2106059;28;20024;-82
2022/03/18 01:04:21;;;;;;;27.98;23.20;;;;;;;4.62;100.00;94370.22;2112348;28;20517;-82
2022/03/18 01:05:23;;;;;;;29.13;23.90;;;;;;;4.62;100.00;94369.44;2098060;28;20016;-82
2022/03/18 01:06:24;;;;;;;29.52;23.42;;;;;;;4.64;100.00;94377.81;2106328;28;20023;-82
2022/03/18 01:07:25;;;;;;;33.30;25.25;;;;;;;4.48;100.00;94364.63;2106193;28;20020;-82
2022/03/18 01:08:26;;;;;;;28.95;24.35;;;;;;;4.45;100.00;94371.38;2109297;28;20508;-82
2022/03/18 01:09:27;;;;;;;31.55;25.20;;;;;;;4.42;100.00;94372.03;2114320;28;20056;-82
2022/03/18 01:10:28;;;;;;;30.15;24.77;;;;;;;4.42;100.00;94371.28;2105952;28;20016;-82
2022/03/18 01:11:33;;;;;;;31.58;24.83;;;;;;;4.58;100.00;94376.56;2097614;28;20031;-82
2022/03/18 01:12:34;;;;;;;35.05;26.70;;;;;;;4.61;100.00;94373.97;2098257;28;20063;-82
2022/03/18 01:13:35;;;;;;;31.63;26.27;;;;;;;4.42;100.00;94372.03;2097577;28;20036;-82
2022/03/18 01:14:36;;;;;;;35.33;27.05;;;;;;;4.53;100.00;94367.75;2106147;28;20020;-81
2022/03/18 01:15:37;;;;;;;33.95;27.17;;;;;;;4.44;100.00;94371.72;2105922;28;20442;-82
2022/03/18 01:16:38;;;;;;;33.60;26.00;;;;;;;4.47;100.00;94374.41;2097712;28;20036;-81
2022/03/18 01:17:39;;;;;;;34.42;27.33;;;;;;;4.44;100.00;94375.13;2097526;28;20449;-82
2022/03/18 01:18:40;;;;;;;35.75;27.13;;;;;;;4.52;100.00;94368.88;2089305;28;20032;-82
2022/03/18 01:19:41;;;;;;;32.22;25.52;;;;;;;4.43;100.00;94367.50;2106001;28;20031;-82
2022/03/18 01:20:43;;;;;;;33.63;27.67;;;;;;;4.36;100.00;94368.16;2114446;28;20030;-82
2022/03/18 01:21:44;;;;;;;32.75;27.17;;;;;;;4.26;100.00;94364.16;2114353;28;20048;-82
2022/03/18 01:22:45;;;;;;;33.33;26.48;;;;;;;4.23;100.00;94370.13;2111716;28;20057;-82
2022/03/18 01:23:46;;;;;;;34.83;26.85;;;;;;;4.50;100.00;94367.69;2107328;28;20497;-82
2022/03/18 01:24:47;;;;;;;38.78;25.40;;;;;;;4.46;100.00;94367.59;2114085;28;20027;-82
2022/03/18 01:25:49;;;;;;;32.03;25.58;;;;;;;4.45;100.00;94374.00;2106030;28;20017;-82
2022/03/18 01:26:50;;;;;;;32.28;25.90;;;;;;;4.38;100.00;94371.19;2097968;28;20023;-81
2022/03/18 01:27:51;;;;;;;32.58;25.65;;;;;;;4.40;100.00;94371.63;2097536;28;20032;-82
2022/03/18 01:28:53;;;;;;;32.20;25.40;;;;;;;4.31;100.00;94365.78;2105874;28;20439;-81
2022/03/18 01:29:54;;;;;;;30.70;24.95;;;;;;;4.40;100.00;94370.88;2105941;28;20411;-82
2022/03/18 01:30:55;;;;;;;30.13;24.58;;;;;;;4.55;100.00;94367.41;2106112;28;20023;-82
2022/03/18 01:31:57;;;;;;;32.10;25.63;;;;;;;4.46;100.00;94364.94;2105531;28;20020;-81
2022/03/18 01:33:01;;;;;;;31.10;25.20;;;;;;;4.59;100.00;94372.78;2114269;28;20020;-82
2022/03/18 01:34:02;;;;;;;31.30;24.50;;;;;;;4.57;100.00;94372.38;2106026;28;20024;-82
2022/03/18 01:35:04;;;;;;;35.10;26.10;;;;;;;4.47;100.00;94366.47;2089268;28;20478;-82
2022/03/18 01:36:05;;;;;;;35.10;27.20;;;;;;;4.43;100.00;94368.28;2097019;28;20024;-82
2022/03/18 01:37:06;;;;;;;33.63;26.30;;;;;;;4.37;100.00;94368.91;2097779;28;20024;-81
2022/03/18 01:38:07;;;;;;;33.35;25.20;;;;;;;4.35;100.00;94369.25;2097951;28;20469;-82
2022/03/18 01:39:08;;;;;;;34.70;27.00;;;;;;;4.45;100.00;94370.59;2105927;28;20115;-81
2022/03/18 01:40:10;;;;;;;34.13;26.85;;;;;;;4.37;100.00;94371.56;2105854;28;20020;-82
2022/03/18 01:41:11;;;;;;;32.60;26.45;;;;;;;4.26;100.00;94372.09;2106013;28;20024;-82
2022/03/18 01:42:12;;;;;;;42.70;27.63;;;;;;;4.26;100.00;94374.75;2097487;28;20020;-82
2022/03/18 01:43:13;;;;;;;56.50;27.33;;;;;;;4.58;100.00;94366.72;2105841;28;20020;-81
2022/03/18 01:44:14;;;;;;;39.40;25.48;;;;;;;4.40;100.00;94374.28;2106098;28;20062;-82
2022/03/18 01:45:15;;;;;;;63.80;27.48;;;;;;;4.24;100.00;94373.53;2114548;28;20084;-81
2022/03/18 01:46:28;;;;;;;47.03;26.27;;;;;;;4.24;100.00;94368.25;2105771;28;20024;-82
2022/03/18 01:47:29;;;;;;;35.35;26.75;;;;;;;4.20;100.00;94373.44;2092374;28;20929;-81
2022/03/18 01:48:30;;;;;;;39.58;27.20;;;;;;;4.27;100.00;94378.16;2105475;28;20024;-82
2022/03/18 01:49:31;;;;;;;37.05;26.00;;;;;;;4.21;100.00;94366.28;2105732;28;20036;-81
2022/03/18 01:50:32;;;;;;;36.95;28.40;;;;;;;4.37;100.00;94372.31;2105745;28;20028;-81
2022/03/18 01:51:34;;;;;;;35.67;28.20;;;;;;;4.36;100.00;94367.38;2105859;28;20024;-82
2022/03/18 01:52:35;;;;;;;40.17;29.08;;;;;;;4.62;100.00;94372.09;2097448;28;20028;-82
2022/03/18 01:53:38;;;;;;;37.67;29.95;;;;;;;4.40;100.00;94366.34;2105738;28;20047;-81
2022/03/18 01:54:46;;;;;;;43.55;29.23;;;;;;;4.34;100.00;94370.34;2097923;28;20021;-82
2022/03/18 01:55:47;;;;;;;39.95;30.38;;;;;;;4.26;100.00;94373.97;2106730;28;20017;-82
2022/03/18 01:56:50;;;;;;;42.35;31.70;;;;;;;4.13;100.00;94375.19;2105862;28;20028;-81
2022/03/18 01:57:51;;;;;;;41.35;31.08;;;;;;;4.37;100.00;94376.84;2105880;28;20020;-81
2022/03/18 01:58:52;;;;;;;42.35;32.03;;;;;;;4.34;100.00;94380.94;2097279;28;20525;-82
2022/03/18 01:59:54;;;;;;;42.75;31.08;;;;;;;4.30;100.00;94372.16;2096856;28;20036;-82
2022/03/18 02:00:55;;;;;;;43.67;32.17;;;;;;;4.29;100.00;94378.56;2097516;28;20457;-82
2022/03/18 02:01:56;;;;;;;48.05;35.78;;;;;;;4.34;100.00;94380.94;2105688;28;20020;-81
2022/03/18 02:02:57;;;;;;;49.72;36.08;;;;;;;4.29;100.00;94374.03;2105802;28;20016;-83
2022/03/18 02:03:58;;;;;;;51.00;37.22;;;;;;;4.20;100.00;94378.75;2089258;28;20025;-82
2022/03/18 02:04:59;;;;;;;52.60;37.55;;;;;;;4.18;100.00;94377.56;2100811;28;20031;-82
2022/03/18 02:06:00;;;;;;;50.17;36.55;;;;;;;4.11;100.00;94375.50;2106047;28;20035;-82
2022/03/18 02:07:14;;;;;;;45.58;34.40;;;;;;;4.25;100.00;94375.81;2097663;28;20031;-82
2022/03/18 02:08:17;;;;;;;43.70;31.95;;;;;;;4.22;100.00;94378.41;2098860;28;20037;-82
2022/03/18 02:09:18;;;;;;;47.35;33.53;;;;;;;4.15;100.00;94380.91;2097891;28;20081;-82
2022/03/18 02:12:05;;;;;;;;;;;;;;;4.11;100.00;94383.44;2147899;27;20542;-81
2022/03/18 02:13:06;;;;;;;45.90;32.63;;;;;;;4.20;100.00;94383.28;2138640;27;19919;-80
2022/03/18 02:14:13;;;;;;;47.38;32.45;;;;;;;4.17;100.00;94376.81;2121920;27;20019;-81
2022/03/18 02:15:14;;;;;;;46.65;33.10;;;;;;;4.17;100.00;94382.09;2113864;27;20107;-81
2022/03/18 02:16:15;;;;;;;46.17;33.15;;;;;;;4.19;100.00;94379.88;2121025;28;20027;-81
2022/03/18 02:17:18;;;;;;;45.63;32.97;;;;;;;4.18;100.00;94383.63;2104355;28;20086;-81
2022/03/18 02:18:19;;;;;;;40.72;31.58;;;;;;;4.25;100.00;94385.66;2105183;28;20076;-81
2022/03/18 02:19:20;;;;;;;46.65;33.20;;;;;;;4.16;100.00;94385.06;2112836;27;20081;-81
2022/03/18 02:20:21;;;;;;;43.85;31.90;;;;;;;4.22;100.00;94383.72;2112452;28;20073;-80
2022/03/18 02:21:26;;;;;;;43.42;31.60;;;;;;;4.27;100.00;94386.84;2112625;28;20046;-81
2022/03/18 02:22:35;;;;;;;45.75;34.30;;;;;;;4.21;100.00;94382.91;2113809;27;20076;-81
2022/03/18 02:23:36;;;;;;;43.85;31.92;;;;;;;4.22;100.00;94379.19;2130688;27;20045;-81
2022/03/18 02:24:42;;;;;;;41.63;32.05;;;;;;;4.09;100.00;94380.41;2120858;28;20091;-80
2022/03/18 02:25:43;;;;;;;49.40;33.00;;;;;;;4.09;100.00;94384.91;2105646;28;20058;-81
2022/03/18 02:26:47;;;;;;;46.30;32.03;;;;;;;4.12;100.00;94379.69;2104216;28;20078;-81
2022/03/18 02:28:04;;;;;;;39.67;30.38;;;;;;;4.27;100.00;94378.16;2105259;28;20117;-81
2022/03/18 02:29:07;;;;;;;41.30;30.83;;;;;;;4.28;100.00;94379.69;2108808;27;20497;-81
2022/03/18 02:30:09;;;;;;;44.03;30.27;;;;;;;4.18;100.00;94380.97;2121203;27;20057;-81
2022/03/18 02:31:10;;;;;;;39.65;29.67;;;;;;;4.21;100.00;94385.56;2112693;28;20051;-80
2022/03/18 02:32:13;;;;;;;39.63;29.83;;;;;;;4.20;100.00;94385.91;2104102;28;20099;-80
2022/03/18 02:33:14;;;;;;;41.15;29.88;;;;;;;4.15;100.00;94386.94;2113240;27;20028;-81
2022/03/18 02:34:15;;;;;;;41.03;30.00;;;;;;;4.20;100.00;94378.75;2121026;28;20121;-81
2022/03/18 02:35:16;;;;;;;43.83;30.55;;;;;;;4.03;100.00;94377.22;2112633;28;20310;-81
2022/03/18 02:36:17;;;;;;;44.42;29.50;;;;;;;3.97;100.00;94391.81;2113968;27;20051;-81
2022/03/18 02:37:18;;;;;;;42.55;30.52;;;;;;;4.02;100.00;94386.28;2129707;27;20031;-80
2022/03/18 02:38:19;;;;;;;45.08;30.55;;;;;;;4.13;100.00;94381.25;2121111;27;20111;-81
2022/03/18 02:39:20;;;;;;;42.67;30.10;;;;;;;4.03;100.00;94381.75;2112808;27;20055;-80
2022/03/18 02:40:23;;;;;;;42.08;31.02;;;;;;;4.00;100.00;94382.44;2112520;28;20024;-80
2022/03/18 02:41:24;;;;;;;39.67;28.17;;;;;;;4.17;100.00;94379.44;2121172;27;20076;-80
2022/03/18 02:42:25;;;;;;;39.78;29.83;;;;;;;4.22;100.00;94378.41;2112769;27;20073;-81
2022/03/18 02:43:26;;;;;;;40.03;29.40;;;;;;;4.28;100.00;94382.31;2120990;27;20464;-81
2022/03/18 02:44:27;;;;;;;43.90;29.38;;;;;;;4.02;100.00;94380.97;2112667;28;20028;-81
2022/03/18 02:45:30;;;;;;;43.33;29.70;;;;;;;4.20;100.00;94385.91;2112344;28;20110;-80
2022/03/18 02:46:32;;;;;;;43.35;30.58;;;;;;;4.10;100.00;94383.81;2121293;27;20471;-81
2022/03/18 02:47:33;;;;;;;42.70;30.23;;;;;;;4.02;100.00;94374.94;2112700;27;20315;-81
2022/03/18 02:48:34;;;;;;;43.72;31.08;;;;;;;4.14;100.00;94376.72;2112070;28;20035;-81
2022/03/18 02:49:35;;;;;;;40.22;29.67;;;;;;;4.23;100.00;94377.31;2120833;28;20035;-81
2022/03/18 02:50:37;;;;;;;42.25;29.30;;;;;;;4.16;100.00;94385.06;2112503;27;20024;-81
2022/03/18 02:51:38;;;;;;;39.40;27.95;;;;;;;4.22;100.00;94373.91;2120920;27;20023;-81
2022/03/18 02:52:39;;;;;;;40.67;27.27;;;;;;;4.21;100.00;94374.97;2120796;28;20069;-81
2022/03/18 02:53:40;;;;;;;35.85;28.15;;;;;;;4.13;100.00;94380.47;2112667;28;20024;-82
2022/03/18 02:54:41;;;;;;;36.47;27.08;;;;;;;4.17;100.00;94381.31;2121124;27;20049;-81
2022/03/18 02:55:42;;;;;;;39.00;27.80;;;;;;;4.14;100.00;94376.72;2120948;27;20024;-81
2022/03/18 02:56:43;;;;;;;38.20;28.23;;;;;;;4.12;100.00;94382.34;2112358;28;20016;-81
2022/03/18 02:57:44;;;;;;;41.00;28.02;;;;;;;4.18;100.00;94385.50;2104075;28;20111;-81
2022/03/18 02:58:50;;;;;;;38.30;27.73;;;;;;;4.04;100.00;94385.94;2112600;28;20709;-81
2022/03/18 02:59:51;;;;;;;39.45;28.52;;;;;;;4.13;100.00;94381.25;2121895;27;20043;-81
2022/03/18 03:00:53;;;;;;;37.33;27.60;;;;;;;4.00;100.00;94385.09;2129374;27;20023;-81
2022/03/18 03:01:55;;;;;;;40.40;29.08;;;;;;;3.94;100.00;94389.09;2112510;27;20057;-81
2022/03/18 03:02:56;;;;;;;38.25;27.80;;;;;;;4.02;100.00;94385.50;2112697;28;20512;-81
2022/03/18 03:03:58;;;;;;;34.80;27.13;;;;;;;3.94;100.00;94384.56;2112555;28;20028;-81
2022/03/18 03:08:57;;;;;;;35.50;24.45;;;;;;;4.19;100.00;94392.31;2129596;27;20015;-81
2022/03/18 03:10:00;;;;;;;35.13;24.63;;;;;;;4.20;100.00;94386.69;2112265;28;20027;-81
2022/03/18 03:11:01;;;;;;;32.95;24.75;;;;;;;4.23;100.00;94393.94;2104289;28;20501;-81
2022/03/18 03:12:02;;;;;;;30.98;24.55;;;;;;;4.23;100.00;94401.88;2111792;28;20315;-81
2022/03/18 03:13:10;;;;;;;37.22;24.80;;;;;;;4.12;100.00;94392.16;2103906;28;20028;-81
2022/03/18 03:14:12;;;;;;;33.53;24.90;;;;;;;4.08;100.00;94394.72;2102510;28;20025;-81
2022/03/18 03:15:13;;;;;;;34.65;24.75;;;;;;;4.08;100.00;94399.25;2104108;28;20027;-81
2022/03/18 03:16:14;;;;;;;33.05;24.58;;;;;;;4.13;100.00;94399.00;2095416;28;20016;-81
2022/03/18 03:17:15;;;;;;;34.78;24.42;;;;;;;3.97;100.00;94402.41;2106866;28;20111;-81
2022/03/18 03:18:16;;;;;;;32.92;24.38;;;;;;;4.07;100.00;94395.81;2112285;28;20027;-82
2022/03/18 03:19:17;;;;;;;31.50;23.88;;;;;;;4.13;100.00;94399.78;2121182;27;20039;-81
2022/03/18 03:20:18;;;;;;;34.13;24.05;;;;;;;4.07;100.00;94406.41;2120872;28;20035;-81
2022/03/18 03:21:19;;;;;;;33.33;23.65;;;;;;;4.17;100.00;94407.75;2111950;28;20456;-81
2022/03/18 03:22:20;;;;;;;29.13;23.60;;;;;;;4.04;100.00;94399.94;2112251;28;20027;-80
2022/03/18 03:23:24;;;;;;;31.23;23.67;;;;;;;4.01;100.00;94397.97;2098766;28;20032;-81
2022/03/18 03:24:26;;;;;;;30.20;22.33;;;;;;;4.21;100.00;94398.03;2098024;28;20525;-81
2022/03/18 03:25:27;;;;;;;29.92;21.08;;;;;;;4.27;100.00;94400.09;2099022;28;20039;-82
2022/03/18 03:26:28;;;;;;;31.90;20.10;;;;;;;4.27;100.00;94396.69;2106519;28;20115;-81
2022/03/18 03:27:29;;;;;;;27.30;20.08;;;;;;;4.26;100.00;94406.50;2106536;28;20031;-82
2022/03/18 03:28:31;;;;;;;24.02;19.60;;;;;;;4.08;100.00;94397.34;2098275;28;20021;-81
2022/03/18 03:29:31;;;;;;;29.90;20.05;;;;;;;4.02;100.00;94414.59;2098355;28;20032;-81
2022/03/18 03:30:33;;;;;;;30.17;19.77;;;;;;;3.93;100.00;94414.00;2098209;28;20020;-81
2022/03/18 03:31:34;;;;;;;24.42;19.70;;;;;;;4.01;100.00;94408.56;2089918;28;20021;-81
2022/03/18 03:32:36;;;;;;;35.00;20.40;;;;;;;4.03;100.00;94408.97;2098428;28;20021;-81
2022/03/18 03:33:38;;;;;;;24.13;19.80;;;;;;;3.98;100.00;94417.16;2098319;28;20024;-81
2022/03/18 03:34:39;;;;;;;25.80;19.27;;;;;;;3.96;100.00;94415.97;2106721;28;20031;-80
2022/03/18 03:35:40;;;;;;;30.15;19.25;;;;;;;3.93;100.00;94416.66;2106270;28;20023;-80
2022/03/18 03:36:41;;;;;;;24.95;19.05;;;;;;;3.95;100.00;94409.94;2106239;28;20115;-81
2022/03/18 03:37:42;;;;;;;34.30;18.65;;;;;;;4.01;100.00;94413.84;2106509;28;20020;-80
2022/03/18 03:38:44;;;;;;;38.25;18.02;;;;;;;4.19;100.00;94413.50;2109072;28;20484;-81
2022/03/18 03:39:45;;;;;;;23.55;15.90;;;;;;;4.18;100.00;94409.31;2115174;28;20080;-81
2022/03/18 03:40:46;;;;;;;22.48;15.73;;;;;;;4.10;100.00;94420.84;2104789;28;20103;-80
2022/03/18 03:41:47;;;;;;;22.08;15.52;;;;;;;4.08;100.00;94415.88;2102463;28;20020;-80
2022/03/18 03:42:48;;;;;;;17.40;15.45;;;;;;;4.06;100.00;94415.47;2098146;28;20029;-81
2022/03/18 03:43:50;;;;;;;16.92;14.05;;;;;;;4.09;100.00;94406.09;2089965;28;20029;-81
2022/03/18 03:44:51;;;;;;;26.55;13.93;;;;;;;4.03;100.00;94418.78;2098449;28;20021;-80
2022/03/18 03:45:52;;;;;;;16.63;13.65;;;;;;;3.85;100.00;94421.00;2090042;28;20120;-81
2022/03/18 03:46:53;;;;;;;17.30;14.32;;;;;;;4.04;100.00;94418.47;2089798;28;20017;-80
2022/03/18 03:47:54;;;;;;;15.55;13.70;;;;;;;3.81;100.00;94422.00;2089410;28;20078;-81
2022/03/18 03:48:55;;;;;;;20.30;14.30;;;;;;;3.72;100.00;94420.31;2089893;28;20060;-80
2022/03/18 03:49:56;;;;;;;15.82;13.77;;;;;;;3.88;100.00;94425.63;2089998;28;20025;-80
2022/03/18 03:50:57;;;;;;;17.27;13.32;;;;;;;3.77;100.00;94421.94;2106545;28;20051;-81
2022/03/18 03:51:58;;;;;;;16.70;13.27;;;;;;;3.79;100.00;94420.50;2097922;28;20021;-80
2022/03/18 03:52:59;;;;;;;16.05;12.73;;;;;;;3.78;100.00;94421.59;2089800;28;20025;-81
2022/03/18 03:54:00;;;;;;;16.45;13.57;;;;;;;3.76;100.00;94431.75;2098008;28;20021;-80
2022/03/18 03:55:03;;;;;;;16.00;13.50;;;;;;;3.82;100.00;94418.25;2098165;28;20063;-81
2022/03/18 03:56:04;;;;;;;27.23;13.23;;;;;;;3.75;100.00;94426.78;2094338;28;20399;-80
2022/03/18 03:57:06;;;;;;;20.80;13.88;;;;;;;3.74;100.00;94423.38;2089753;28;20170;-80
2022/03/18 03:58:08;;;;;;;16.77;13.63;;;;;;;3.79;100.00;94431.06;2089998;28;20544;-80
2022/03/18 03:59:09;;;;;;;20.08;13.38;;;;;;;3.91;100.00;94432.88;2089999;28;20107;-81
2022/03/18 04:00:12;;;;;;;17.30;13.38;;;;;;;3.94;100.00;94420.84;2097637;28;20043;-80
2022/03/18 04:01:13;;;;;;;15.75;12.77;;;;;;;4.03;100.00;94432.78;2098255;28;20020;-80
2022/03/18 04:02:14;;;;;;;19.45;13.30;;;;;;;4.01;100.00;94432.38;2101375;28;20058;-81
2022/03/18 04:03:15;;;;;;;17.17;13.07;;;;;;;3.86;100.00;94427.81;2106321;28;20019;-80
2022/03/18 04:04:16;;;;;;;19.58;13.35;;;;;;;3.77;100.00;94437.78;2106721;28;20016;-80
2022/03/18 04:05:17;;;;;;;16.00;12.88;;;;;;;3.84;100.00;94430.03;2103890;28;20126;-81
2022/03/18 04:06:18;;;;;;;28.55;13.80;;;;;;;4.00;100.00;94441.41;2106297;28;20028;-81
2022/03/18 04:07:19;;;;;;;14.55;12.38;;;;;;;3.96;100.00;94437.91;2106298;28;20027;-80
2022/03/18 04:08:20;;;;;;;21.27;13.48;;;;;;;4.04;100.00;94430.91;2098310;28;20070;-81
2022/03/18 04:09:21;;;;;;;16.90;12.43;;;;;;;4.03;100.00;94438.06;2106386;28;20031;-80
2022/03/18 04:10:22;;;;;;;17.13;13.13;;;;;;;3.85;100.00;94441.38;2098200;28;20017;-80
2022/03/18 04:11:23;;;;;;;21.27;13.90;;;;;;;3.81;100.00;94443.94;2106179;27;20045;-80
2022/03/18 04:12:24;;;;;;;17.90;12.77;;;;;;;3.92;100.00;94442.34;2114211;28;20110;-81
2022/03/18 04:13:25;;;;;;;24.50;12.48;;;;;;;3.93;100.00;94445.75;2098061;28;20029;-81
2022/03/18 04:14:26;;;;;;;14.70;12.18;;;;;;;3.92;100.00;94447.63;2114704;28;20392;-80
2022/03/18 04:15:27;;;;;;;20.85;13.48;;;;;;;4.01;100.00;94442.94;2106423;28;20081;-80
2022/03/18 04:16:28;;;;;;;51.53;12.73;;;;;;;4.03;100.00;94440.72;2114648;28;20503;-80
2022/03/18 04:17:45;;;;;;;39.05;12.90;;;;;;;3.82;100.00;94444.69;2114555;28;20027;-81
2022/03/18 04:18:47;;;;;;;43.35;12.70;;;;;;;3.88;100.00;94446.78;2094315;28;20112;-81
2022/03/18 04:19:48;;;;;;;50.60;13.43;;;;;;;3.81;100.00;94445.81;2098017;28;20070;-81
2022/03/18 04:20:49;;;;;;;71.47;13.07;;;;;;;3.93;100.00;94446.53;2097784;28;20445;-81
2022/03/18 04:21:50;;;;;;;140.93;14.13;;;;;;;3.73;100.00;94444.84;2097904;28;20017;-81
2022/03/18 04:22:58;;;;;;;69.32;13.75;;;;;;;3.68;100.00;94439.81;2106357;28;20709;-81
2022/03/18 04:24:06;;;;;;;40.75;13.32;;;;;;;3.83;100.00;94447.03;2106732;28;20027;-81
2022/03/18 04:25:14;;;;;;;97.78;14.95;;;;;;;3.89;100.00;94447.53;2098819;28;20069;-81
2022/03/18 04:26:15;;;;;;;99.85;13.70;;;;;;;3.84;100.00;94445.16;2098708;28;20419;-81
2022/03/18 04:27:15;;;;;;;28.08;12.77;;;;;;;3.75;100.00;94446.06;2100939;28;20110;-81
2022/03/18 04:28:17;;;;;;;77.25;13.35;;;;;;;3.66;100.00;94449.97;2114543;28;20490;-81
2022/03/18 04:29:18;;;;;;;110.60;14.13;;;;;;;3.51;100.00;94451.47;2114773;28;20023;-81
2022/03/18 04:30:19;;;;;;;143.40;14.43;;;;;;;3.50;100.00;94450.69;2106326;28;20093;-81
2022/03/18 04:31:20;;;;;;;97.82;13.52;;;;;;;3.55;100.00;94444.41;2097927;28;20024;-81
2022/03/18 04:32:21;;;;;;;47.22;12.63;;;;;;;3.64;100.00;94452.94;2097666;28;20071;-81
2022/03/18 04:33:22;;;;;;;36.50;12.50;;;;;;;3.64;100.00;94449.53;2098010;28;20051;-81
2022/03/18 04:34:23;;;;;;;82.43;13.05;;;;;;;3.52;100.00;94453.78;2105876;28;20024;-81
2022/03/18 04:35:24;;;;;;;46.08;11.70;;;;;;;3.45;100.00;94452.81;2116486;27;20086;-81
2022/03/18 04:36:25;;;;;;;31.13;11.95;;;;;;;3.58;100.00;94450.91;2113860;28;20023;-79
2022/03/18 04:37:26;;;;;;;59.10;12.23;;;;;;;3.50;100.00;94456.00;2097744;28;20017;-80
2022/03/18 04:38:27;;;;;;;47.55;11.60;;;;;;;3.48;100.00;94452.16;2106076;28;20028;-81
2022/03/18 04:39:28;;;;;;;21.00;11.65;;;;;;;3.59;100.00;94463.78;2114696;28;20035;-80
2022/03/18 04:40:29;;;;;;;64.55;11.48;;;;;;;3.52;100.00;94455.69;2122950;27;20429;-81
2022/03/18 04:41:30;;;;;;;80.10;12.00;;;;;;;3.54;100.00;94459.50;2114450;28;20043;-81
2022/03/18 04:42:31;;;;;;;54.97;11.90;;;;;;;3.41;100.00;94450.09;2105937;28;20031;-81
2022/03/18 04:43:32;;;;;;;47.22;11.35;;;;;;;3.45;100.00;94460.75;2105627;28;20028;-82
2022/03/18 04:44:33;;;;;;;30.60;12.85;;;;;;;3.41;100.00;94454.59;2097753;28;20059;-81
2022/03/18 04:45:34;;;;;;;89.78;13.25;;;;;;;3.71;100.00;94457.66;2106213;28;20024;-81
2022/03/18 04:46:35;;;;;;;116.15;13.07;;;;;;;3.57;100.00;94454.66;2110258;28;20051;-81
2022/03/18 04:47:36;;;;;;;24.27;11.27;;;;;;;3.58;100.00;94461.47;2105977;28;20038;-81
2022/03/18 04:48:38;;;;;;;57.55;12.52;;;;;;;3.66;100.00;94466.63;2105735;28;20135;-81
2022/03/18 04:49:38;;;;;;;147.50;12.85;;;;;;;3.47;100.00;94461.97;2089486;28;20100;-81
2022/03/18 04:50:39;;;;;;;59.67;12.98;;;;;;;3.50;100.00;94458.63;2097802;28;20409;-81
2022/03/18 04:51:40;;;;;;;106.05;14.43;;;;;;;3.50;100.00;94466.56;2097506;28;20024;-81
2022/03/18 04:52:41;;;;;;;59.90;12.98;;;;;;;3.47;100.00;94456.69;2089387;28;20430;-80
2022/03/18 04:53:42;;;;;;;105.68;13.95;;;;;;;3.61;100.00;94460.81;2097837;28;20115;-80